Ana Sayfa
METAR-TAF:

METAR-TAF

Havaalanları :

Olympic Dam, Avustralya

Enlem: 30-29-06S, Boylam: 136-52-36E, yükseklik: 105 m

Güncel hava durumu gözlemi

Rapor saat 10:00 UTC de 47 dakika önce yapıldı.
Rüzgar kuzeydan 8 kt
Sıcaklık 12°C
Nem 38%
Basınç 1027 hPa
Görüş mesafesi 10 km veya daha fazla
10500 ft yükseklikte çok bulutlu

METAR: YOLD 241000Z AUTO 01008KT 9999 // OVC105 12/M02 Q1027

Saat: 20:17 (10:47 UTC)

Tahmin

Rapor saat 00:47 UTC de 10 saat ve 0 dakika önce yapıldı.
Ayın 24'si saat 02 UTC'den ayın 24'si saat 14 UTC'ye kadar geçerli Tahmin
Rüzgar kuzey/kuzeydoğudan 14 kt
Görüş mesafesi 10 km veya daha fazla
1500 m altında bulut yok ve kümülonimbus yok
Ayın 24'si saat 1000 UTC'den
Rüzgar kuzey/kuzeydoğudan 5 kt
Görüş mesafesi 10 km veya daha fazla
1500 m altında bulut yok ve kümülonimbus yok

TAF: YOLD 240047Z 2402/2414 02014KT CAVOK FM241000 02005KT CAVOK

4.000'den fazla havaalanı için hava durumu gözlemleri ve tahminleri (METAR ve TAF raporları).

Kullanılabilir istasyonlar harita üzerinde sarı ve kırmızı noktalarla gösterilir.

İstasyonun adını görmek için fareyi noktanın üzerinde gezdirin.

Sonrasında hava gözlem ve tahminlerini görmek için tıklayın.

Haritayı değiştirmek için: yaklaştırmak için siyah artı işaretli yeşil düğmeye ve uzaklaştırmak için de eksi işaretli düğmeye hızla tıklayın; bitişik haritalar için yeşil okları kullanın.


METAR-TAF: